createdAt,value
2018-03-24T00:00:15.086Z,30.37
2018-03-24T00:02:42.573Z,23.53
2018-03-24T00:05:10.070Z,23.13
2018-03-24T00:07:37.532Z,25.83
2018-03-24T00:10:05.018Z,25.93
2018-03-24T00:12:32.518Z,26.43
2018-03-24T00:15:00.026Z,28.97
2018-03-24T00:17:27.515Z,29.33
2018-03-24T00:19:54.991Z,30.73
2018-03-24T00:22:22.512Z,27.03
2018-03-24T00:24:50.016Z,32.83
2018-03-24T00:27:17.494Z,30.20
2018-03-24T00:29:44.983Z,34.20
2018-03-24T00:32:12.470Z,31.73
2018-03-24T00:34:39.950Z,37.93
2018-03-24T00:37:07.526Z,33.73
2018-03-24T00:39:35.020Z,45.20
2018-03-24T00:42:03.649Z,36.07
2018-03-24T00:44:31.225Z,35.03
2018-03-24T00:46:58.740Z,37.93
2018-03-24T00:49:26.202Z,35.60
2018-03-24T00:51:53.975Z,50.00
2018-03-24T00:54:21.428Z,36.57
2018-03-24T00:56:48.883Z,35.23
2018-03-24T00:59:16.344Z,36.00
2018-03-24T01:01:43.800Z,35.00
2018-03-24T01:04:11.422Z,38.83
2018-03-24T01:06:38.924Z,47.27
2018-03-24T01:09:06.494Z,33.93
2018-03-24T01:11:34.009Z,47.77
2018-03-24T01:14:01.460Z,35.97
2018-03-24T01:16:29.034Z,45.33
2018-03-24T01:18:56.472Z,38.20
2018-03-24T01:21:23.964Z,35.87
2018-03-24T01:23:51.469Z,38.20
2018-03-24T01:26:18.967Z,46.27
2018-03-24T01:28:46.445Z,39.57
2018-03-24T01:31:13.977Z,37.03
2018-03-24T01:33:41.455Z,41.27
2018-03-24T01:36:08.991Z,38.67
2018-03-24T01:38:36.447Z,36.63
2018-03-24T01:41:03.955Z,39.17
2018-03-24T01:43:31.466Z,39.33
2018-03-24T01:45:59.864Z,51.00
2018-03-24T01:48:29.064Z,41.00
2018-03-24T01:50:56.503Z,42.83
2018-03-24T01:53:24.923Z,42.03
2018-03-24T01:55:52.435Z,41.63
2018-03-24T01:58:19.901Z,39.77
2018-03-24T02:00:47.466Z,50.40
2018-03-24T02:03:14.932Z,39.70
2018-03-24T02:05:42.421Z,40.70
2018-03-24T02:08:09.963Z,53.47
2018-03-24T02:10:37.427Z,42.80
2018-03-24T02:13:04.970Z,52.80
2018-03-24T02:15:32.431Z,40.47
2018-03-24T02:17:59.911Z,41.70
2018-03-24T02:20:27.395Z,40.83
2018-03-24T02:22:54.919Z,53.33
2018-03-24T02:25:22.395Z,41.67
2018-03-24T02:27:49.891Z,39.60
2018-03-24T02:30:17.370Z,39.87
2018-03-24T02:32:44.885Z,56.70
2018-03-24T02:35:12.360Z,36.37
2018-03-24T02:37:39.863Z,41.43
2018-03-24T02:40:07.351Z,38.83
2018-03-24T02:42:34.841Z,41.57
2018-03-24T02:45:02.321Z,46.17
2018-03-24T02:47:29.831Z,37.97
2018-03-24T02:49:57.303Z,39.30
2018-03-24T02:52:24.809Z,37.10
2018-03-24T02:54:52.274Z,39.53
2018-03-24T02:57:19.733Z,39.40
2018-03-24T02:59:47.224Z,39.63
2018-03-24T03:02:14.683Z,37.77
2018-03-24T03:04:42.146Z,38.87
2018-03-24T03:07:09.662Z,52.43
2018-03-24T03:09:37.168Z,39.43
2018-03-24T03:12:04.625Z,39.53
2018-03-24T03:14:32.080Z,45.67
2018-03-24T03:16:59.571Z,38.03
2018-03-24T03:19:27.049Z,52.50
2018-03-24T03:21:54.527Z,40.97
2018-03-24T03:24:22.045Z,52.20
2018-03-24T03:26:49.520Z,36.80
2018-03-24T03:29:22.049Z,40.33
2018-03-24T03:34:55.930Z,49.37
2018-03-24T03:37:23.445Z,40.23
2018-03-24T03:39:50.889Z,41.60
2018-03-24T03:42:18.361Z,40.27
2018-03-24T03:44:45.844Z,39.70
2018-03-24T03:47:13.664Z,40.27
2018-03-24T03:49:41.204Z,39.33
2018-03-24T03:52:08.721Z,42.33
2018-03-24T03:54:36.289Z,41.03
2018-03-24T03:57:03.738Z,41.20
2018-03-24T03:59:31.223Z,43.10
2018-03-24T04:01:58.719Z,41.20
2018-03-24T04:04:26.203Z,43.80
2018-03-24T04:06:53.688Z,44.33
2018-03-24T04:09:21.155Z,40.73
2018-03-24T04:11:48.660Z,44.30
2018-03-24T04:14:16.154Z,58.80
2018-03-24T04:16:44.623Z,44.90
2018-03-24T04:19:12.711Z,42.83
2018-03-24T04:21:40.200Z,39.20
2018-03-24T04:24:07.708Z,42.37
2018-03-24T04:26:35.154Z,46.77
2018-03-24T04:29:02.745Z,41.93
2018-03-24T04:31:31.535Z,43.40
2018-03-24T04:33:59.621Z,44.67
2018-03-24T04:36:27.447Z,42.90
2018-03-24T04:38:54.955Z,58.07
2018-03-24T04:41:22.614Z,39.70
2018-03-24T04:43:50.310Z,44.57
2018-03-24T04:46:18.760Z,46.53
2018-03-24T04:48:46.395Z,47.03
2018-03-24T04:51:14.057Z,44.83
2018-03-24T04:53:42.207Z,45.10
2018-03-24T04:56:09.893Z,57.77
2018-03-24T04:58:37.652Z,46.57
2018-03-24T05:01:05.189Z,46.83
2018-03-24T05:03:32.826Z,49.73
2018-03-24T05:06:00.330Z,43.10
2018-03-24T05:08:28.291Z,54.73
2018-03-24T05:10:55.978Z,43.90
2018-03-24T05:13:23.593Z,58.77
2018-03-24T05:15:51.268Z,43.83
2018-03-24T05:18:18.878Z,44.73
2018-03-24T05:20:46.514Z,44.03
2018-03-24T05:23:14.026Z,43.63
2018-03-24T05:25:41.516Z,45.73
2018-03-24T05:28:09.018Z,42.67
2018-03-24T05:30:36.652Z,43.17
2018-03-24T05:33:04.362Z,57.93
2018-03-24T05:35:31.910Z,44.27
2018-03-24T05:37:59.531Z,44.30
2018-03-24T05:40:27.162Z,49.57
2018-03-24T05:42:54.802Z,44.90
2018-03-24T05:45:23.168Z,42.37
2018-03-24T05:47:50.793Z,44.53
2018-03-24T05:50:18.422Z,43.23
2018-03-24T05:52:45.941Z,47.13
2018-03-24T05:55:13.520Z,46.73
2018-03-24T05:57:41.058Z,42.93
2018-03-24T06:00:08.805Z,42.93
2018-03-24T06:02:36.296Z,45.07
2018-03-24T06:05:03.808Z,43.03
2018-03-24T06:07:31.317Z,43.63
2018-03-24T06:09:58.828Z,40.93
2018-03-24T06:12:26.328Z,43.03
2018-03-24T06:14:53.847Z,45.17
2018-03-24T06:17:21.322Z,44.03
2018-03-24T06:19:48.881Z,55.73
2018-03-24T06:22:16.640Z,44.23
2018-03-24T06:24:44.156Z,56.27
2018-03-24T06:27:12.288Z,43.87
2018-03-24T06:29:39.766Z,45.40
2018-03-24T06:32:07.236Z,45.20
2018-03-24T06:34:34.708Z,45.77
2018-03-24T06:37:18.004Z,46.57
2018-03-24T06:39:45.560Z,47.40
2018-03-24T06:42:13.040Z,42.30
2018-03-24T06:44:41.480Z,46.40
2018-03-24T06:47:08.965Z,45.60
2018-03-24T06:49:36.420Z,44.13
2018-03-24T06:52:03.983Z,41.60
2018-03-24T06:54:31.440Z,43.93
2018-03-24T06:56:59.039Z,42.80
2018-03-24T06:59:26.497Z,42.60
2018-03-24T07:01:54.005Z,43.73
2018-03-24T07:04:21.491Z,58.77
2018-03-24T07:06:48.988Z,44.27
2018-03-24T07:09:16.498Z,47.23
2018-03-24T07:11:44.014Z,42.57
2018-03-24T07:14:11.504Z,55.93
2018-03-24T07:16:39.030Z,46.47
2018-03-24T07:19:06.546Z,42.00
2018-03-24T07:21:34.002Z,47.17
2018-03-24T07:24:01.466Z,57.80
2018-03-24T07:26:28.938Z,49.40
2018-03-24T07:28:56.449Z,46.10
2018-03-24T07:31:23.906Z,42.90
2018-03-24T07:33:51.464Z,41.30
2018-03-24T07:36:18.939Z,45.43
2018-03-24T07:38:46.442Z,57.17
2018-03-24T07:41:13.925Z,40.93
2018-03-24T07:43:41.355Z,58.07
2018-03-24T07:46:08.858Z,43.00
2018-03-24T07:48:36.365Z,44.50
2018-03-24T07:51:04.352Z,59.10
2018-03-24T07:53:31.861Z,43.27
2018-03-24T07:55:59.335Z,45.50
2018-03-24T07:58:26.835Z,57.97
2018-03-24T08:00:55.045Z,44.63
2018-03-24T08:03:22.546Z,42.20
2018-03-24T08:05:50.130Z,43.97
2018-03-24T08:08:17.666Z,44.00
2018-03-24T08:10:45.909Z,43.23
2018-03-24T08:13:13.414Z,39.57
2018-03-24T08:15:40.923Z,42.20
2018-03-24T08:18:08.412Z,43.83
2018-03-24T08:20:35.868Z,45.03
2018-03-24T08:23:03.377Z,45.13
2018-03-24T08:25:30.949Z,42.00
2018-03-24T08:27:58.420Z,42.20
2018-03-24T08:30:26.369Z,44.83
2018-03-24T08:32:53.792Z,45.33
2018-03-24T08:35:21.340Z,48.70
2018-03-24T08:37:48.880Z,41.93
2018-03-24T08:40:16.376Z,43.97
2018-03-24T08:42:44.096Z,46.03
2018-03-24T08:45:11.575Z,41.93
2018-03-24T08:47:39.066Z,47.97
2018-03-24T08:50:06.635Z,37.87
2018-03-24T08:52:34.931Z,40.37
2018-03-24T08:55:02.399Z,42.77
2018-03-24T08:57:29.950Z,37.30
2018-03-24T09:00:02.574Z,40.50
2018-03-24T09:02:30.091Z,39.63
2018-03-24T09:04:57.568Z,36.03
2018-03-24T09:07:25.069Z,37.00
2018-03-24T09:09:52.543Z,33.20
2018-03-24T09:12:20.018Z,35.07
2018-03-24T09:14:47.523Z,36.80
2018-03-24T09:17:14.998Z,31.83
2018-03-24T09:19:42.494Z,35.37
2018-03-24T09:22:10.054Z,36.50
2018-03-24T09:24:37.534Z,33.40
2018-03-24T09:27:05.104Z,31.77
2018-03-24T09:29:32.604Z,34.90
2018-03-24T09:32:00.086Z,35.43
2018-03-24T09:34:27.583Z,31.17
2018-03-24T09:36:55.063Z,32.70
2018-03-24T09:39:22.551Z,33.23
2018-03-24T09:41:50.023Z,36.23
2018-03-24T09:44:17.831Z,36.10
2018-03-24T09:46:45.325Z,33.10
2018-03-24T09:49:12.883Z,32.73
2018-03-24T09:51:40.403Z,31.13
2018-03-24T09:54:07.946Z,31.07
2018-03-24T09:56:35.426Z,33.10
2018-03-24T09:59:02.914Z,31.50
2018-03-24T10:01:30.386Z,32.90
2018-03-24T10:03:57.853Z,31.93
2018-03-24T10:06:25.397Z,27.53
2018-03-24T10:09:07.137Z,29.10
2018-03-24T10:11:34.633Z,26.70
2018-03-24T10:14:02.109Z,24.67
2018-03-24T10:16:29.655Z,23.53
2018-03-24T10:18:57.162Z,20.90
2018-03-24T10:24:29.959Z,21.03
2018-03-24T10:26:57.473Z,16.57
2018-03-24T10:29:25.205Z,16.67
2018-03-24T10:31:52.669Z,15.30
2018-03-24T10:34:20.145Z,14.03
2018-03-24T10:36:47.599Z,15.97
2018-03-24T10:39:15.147Z,15.43
2018-03-24T10:41:42.675Z,15.67
2018-03-24T10:44:10.151Z,15.30
2018-03-24T10:46:37.908Z,12.60
2018-03-24T10:49:05.455Z,13.95
2018-03-24T10:51:32.987Z,13.50
2018-03-24T10:54:00.489Z,12.77
2018-03-24T10:56:27.963Z,11.85
2018-03-24T10:59:10.402Z,13.60
2018-03-24T11:01:37.885Z,12.55
2018-03-24T11:04:05.404Z,15.20
2018-03-24T11:06:32.883Z,13.55
2018-03-24T11:09:19.604Z,12.40
2018-03-24T11:11:47.137Z,12.07
2018-03-24T11:14:14.654Z,14.10
2018-03-24T11:16:42.115Z,11.80
2018-03-24T11:19:09.602Z,10.57
2018-03-24T11:21:37.082Z,12.48
2018-03-24T11:24:04.649Z,11.95
2018-03-24T11:26:32.123Z,11.25
2018-03-24T11:28:59.585Z,12.93
2018-03-24T11:31:27.100Z,12.05
2018-03-24T11:33:54.565Z,11.43
2018-03-24T11:36:22.042Z,10.93
2018-03-24T11:38:59.133Z,10.43
2018-03-24T11:41:26.964Z,10.60
2018-03-24T11:43:54.493Z,11.20
2018-03-24T11:46:22.016Z,13.32
2018-03-24T11:48:49.569Z,11.55
2018-03-24T11:51:17.032Z,14.18
2018-03-24T11:53:46.348Z,12.40
2018-03-24T11:56:15.638Z,13.20
2018-03-24T11:58:43.375Z,12.97
2018-03-24T12:01:11.592Z,13.30
2018-03-24T12:03:39.866Z,15.10
2018-03-24T12:06:07.357Z,15.40
2018-03-24T12:08:34.855Z,12.20
2018-03-24T12:11:02.388Z,12.97
2018-03-24T12:13:29.906Z,14.03
2018-03-24T12:15:57.465Z,14.90
2018-03-24T12:18:25.313Z,13.87
2018-03-24T12:20:52.786Z,13.03
2018-03-24T12:23:20.323Z,13.33
2018-03-24T12:25:47.801Z,16.47
2018-03-24T12:28:15.299Z,12.30
2018-03-24T12:30:42.800Z,12.80
2018-03-24T12:33:10.291Z,13.10
2018-03-24T12:35:37.769Z,13.13
2018-03-24T12:38:05.301Z,12.10
2018-03-24T12:40:47.147Z,11.57
2018-03-24T12:43:14.622Z,12.30
2018-03-24T12:45:42.098Z,13.27
2018-03-24T12:48:10.186Z,11.70
2018-03-24T12:50:37.701Z,14.77
2018-03-24T12:53:07.497Z,14.17
2018-03-24T12:55:35.038Z,11.90
2018-03-24T12:58:03.399Z,12.57
2018-03-24T13:00:35.896Z,12.50
2018-03-24T13:03:03.419Z,11.68
2018-03-24T13:05:30.910Z,12.33
2018-03-24T13:07:58.432Z,12.47
2018-03-24T13:10:30.948Z,11.60
2018-03-24T13:12:58.548Z,13.75
2018-03-24T13:15:26.020Z,12.13
2018-03-24T13:17:53.598Z,12.45
2018-03-24T13:20:26.022Z,12.02
2018-03-24T13:22:53.531Z,11.90
2018-03-24T13:25:21.032Z,9.95
2018-03-24T13:27:48.710Z,12.50
2018-03-24T13:30:16.296Z,11.85
2018-03-24T13:32:43.822Z,11.43
2018-03-24T13:35:11.358Z,11.12
2018-03-24T13:37:38.918Z,12.80
2018-03-24T13:40:06.389Z,11.63
2018-03-24T13:42:33.890Z,11.85
2018-03-24T13:45:01.450Z,12.77
2018-03-24T13:47:29.040Z,13.05
2018-03-24T13:58:33.808Z,12.82
2018-03-24T14:01:01.452Z,12.48
2018-03-24T14:03:29.013Z,13.15
2018-03-24T14:05:56.720Z,12.25
2018-03-24T14:08:24.283Z,14.77
2018-03-24T14:10:51.809Z,13.35
2018-03-24T14:13:19.410Z,12.68
2018-03-24T14:15:47.024Z,14.02
2018-03-24T14:18:14.531Z,13.23
2018-03-24T14:20:42.121Z,13.38
2018-03-24T14:23:09.760Z,13.05
2018-03-24T14:25:37.306Z,13.25
2018-03-24T14:28:04.968Z,12.40
2018-03-24T14:30:32.664Z,13.77
2018-03-24T14:33:00.210Z,12.55
2018-03-24T14:35:27.739Z,14.07
2018-03-24T14:37:55.222Z,13.52
2018-03-24T14:40:22.792Z,14.50
2018-03-24T14:42:50.300Z,14.25
2018-03-24T14:45:17.774Z,14.75
2018-03-24T14:47:45.234Z,15.53
2018-03-24T14:50:12.764Z,16.70
2018-03-24T14:52:40.491Z,16.00
2018-03-24T14:55:07.952Z,14.90
2018-03-24T14:57:35.443Z,19.77
2018-03-24T15:00:03.198Z,16.57
2018-03-24T15:02:30.700Z,16.47
2018-03-24T15:04:58.254Z,15.97
2018-03-24T15:07:25.712Z,16.53
2018-03-24T15:09:53.216Z,15.60
2018-03-24T15:12:20.824Z,15.43
2018-03-24T15:14:48.330Z,16.47
2018-03-24T15:17:15.865Z,16.67
2018-03-24T15:19:43.424Z,15.47
2018-03-24T15:22:10.992Z,17.40
2018-03-24T15:24:38.538Z,16.13
2018-03-24T15:27:06.138Z,14.63
2018-03-24T15:29:49.205Z,15.27
2018-03-24T15:32:28.658Z,14.50
2018-03-24T15:35:07.978Z,14.07
2018-03-24T15:37:35.509Z,15.83
2018-03-24T15:40:02.966Z,14.30
2018-03-24T15:42:30.430Z,15.23
2018-03-24T15:44:57.922Z,17.07
2018-03-24T15:47:25.401Z,17.83
2018-03-24T15:49:53.734Z,17.00
2018-03-24T15:52:21.214Z,16.73
2018-03-24T15:54:48.764Z,16.77
2018-03-24T15:57:16.263Z,16.60
2018-03-24T15:59:43.754Z,17.50
2018-03-24T16:02:11.274Z,17.17
2018-03-24T16:04:38.773Z,18.07
2018-03-24T16:07:06.299Z,18.20
2018-03-24T16:09:33.868Z,15.83
2018-03-24T16:12:01.415Z,16.53
2018-03-24T16:14:28.877Z,15.93
2018-03-24T16:16:56.321Z,17.50
2018-03-24T16:19:33.478Z,17.27
2018-03-24T16:22:01.005Z,16.23
2018-03-24T16:24:28.503Z,16.43
2018-03-24T16:26:56.088Z,15.23
2018-03-24T16:29:23.750Z,16.60
2018-03-24T16:31:51.248Z,17.13
2018-03-24T16:34:18.740Z,17.37
2018-03-24T16:36:46.366Z,15.83
2018-03-24T16:39:13.854Z,18.00
2018-03-24T16:41:41.340Z,19.67
2018-03-24T16:44:08.930Z,19.10
2018-03-24T16:46:36.428Z,26.00
2018-03-24T16:49:04.002Z,18.57
2018-03-24T16:51:31.616Z,17.73
2018-03-24T16:54:00.128Z,23.43
2018-03-24T16:56:27.708Z,19.23
2018-03-24T16:58:55.176Z,19.77
2018-03-24T17:01:22.622Z,21.17
2018-03-24T17:03:50.198Z,19.53
2018-03-24T17:06:17.674Z,21.33
2018-03-24T17:08:45.265Z,23.43
2018-03-24T17:11:12.760Z,22.43
2018-03-24T17:13:40.531Z,20.23
2018-03-24T17:16:08.111Z,19.27
2018-03-24T17:18:35.719Z,18.23
2018-03-24T17:21:03.222Z,21.97
2018-03-24T17:23:32.122Z,16.77
2018-03-24T17:25:59.655Z,18.97
2018-03-24T17:28:27.264Z,16.80
2018-03-24T17:30:54.809Z,18.43
2018-03-24T17:33:22.330Z,17.00
2018-03-24T17:35:49.928Z,19.47
2018-03-24T17:38:19.042Z,17.70
2018-03-24T17:40:46.732Z,17.10
2018-03-24T17:43:14.182Z,19.27
2018-03-24T17:45:41.674Z,18.80
2018-03-24T17:48:09.120Z,18.63
2018-03-24T17:50:46.386Z,20.33
2018-03-24T17:53:14.022Z,21.43
2018-03-24T17:55:41.667Z,18.93
2018-03-24T17:58:09.102Z,22.73
2018-03-24T18:00:36.574Z,26.40
2018-03-24T18:03:04.144Z,29.40
2018-03-24T18:05:31.680Z,29.97
2018-03-24T18:07:59.203Z,29.40
2018-03-24T18:10:26.752Z,31.90
2018-03-24T18:12:54.258Z,29.13
2018-03-24T18:15:21.790Z,31.17
2018-03-24T18:17:49.319Z,30.73
2018-03-24T18:20:16.844Z,31.50
2018-03-24T18:22:44.357Z,32.53
2018-03-24T18:25:11.830Z,32.33
2018-03-24T18:27:39.324Z,33.23
2018-03-24T18:30:06.839Z,38.23
2018-03-24T18:32:34.308Z,37.60
2018-03-24T18:35:01.852Z,36.00
2018-03-24T18:37:29.328Z,35.67
2018-03-24T18:40:01.792Z,34.67
2018-03-24T18:42:29.288Z,36.10
2018-03-24T18:44:57.016Z,35.03
2018-03-24T18:47:24.557Z,33.90
2018-03-24T18:49:52.107Z,35.17
2018-03-24T18:52:19.739Z,38.00
2018-03-24T18:54:47.436Z,34.97
2018-03-24T18:57:15.068Z,35.87
2018-03-24T18:59:42.668Z,37.80
2018-03-24T19:02:11.145Z,38.10
2018-03-24T19:04:38.619Z,35.63
2018-03-24T19:07:06.336Z,35.50
2018-03-24T19:09:33.905Z,37.27
2018-03-24T19:12:01.582Z,35.57
2018-03-24T19:14:29.150Z,35.40
2018-03-24T19:16:56.681Z,37.03
2018-03-24T19:19:24.156Z,37.13
2018-03-24T19:21:51.689Z,35.43
2018-03-24T19:24:19.154Z,39.23
2018-03-24T19:26:46.602Z,38.60
2018-03-24T19:29:14.135Z,38.43
2018-03-24T19:31:41.657Z,36.77
2018-03-24T19:34:09.175Z,34.70
2018-03-24T19:36:36.773Z,38.97
2018-03-24T19:39:04.281Z,36.23
2018-03-24T19:41:31.802Z,37.83
2018-03-24T19:43:59.329Z,37.83
2018-03-24T19:46:26.814Z,38.57
2018-03-24T19:48:54.298Z,37.23
2018-03-24T19:51:21.794Z,39.60
2018-03-24T19:53:49.335Z,40.07
2018-03-24T19:56:16.834Z,38.17
2018-03-24T19:58:44.346Z,40.50
2018-03-24T20:01:11.896Z,37.93
2018-03-24T20:03:39.423Z,37.97
2018-03-24T20:06:06.980Z,38.10
2018-03-24T20:08:34.503Z,36.77
2018-03-24T20:11:07.197Z,34.67
2018-03-24T20:13:34.695Z,34.80
2018-03-24T20:16:02.201Z,34.93
2018-03-24T20:18:29.807Z,38.80
2018-03-24T20:20:58.139Z,33.07
2018-03-24T20:23:25.679Z,33.43
2018-03-24T20:25:53.182Z,35.73
2018-03-24T20:28:20.722Z,33.40
2018-03-24T20:30:48.234Z,32.83
2018-03-24T20:33:15.685Z,33.47
2018-03-24T20:35:43.241Z,32.97
2018-03-24T20:38:10.871Z,36.33
2018-03-24T20:40:39.219Z,34.30
2018-03-24T20:43:07.280Z,32.87
2018-03-24T20:45:34.763Z,34.13
2018-03-24T20:48:02.311Z,32.80
2018-03-24T20:50:29.825Z,32.80
2018-03-24T20:52:57.369Z,31.23
2018-03-24T20:55:25.032Z,31.60
2018-03-24T20:57:52.506Z,30.90
2018-03-24T21:00:20.105Z,32.73
2018-03-24T21:02:47.631Z,32.23
2018-03-24T21:05:15.139Z,30.67
2018-03-24T21:07:42.683Z,34.07
2018-03-24T21:10:10.163Z,34.77
2018-03-24T21:12:38.173Z,36.20
2018-03-24T21:15:06.081Z,33.37
2018-03-24T21:17:33.549Z,31.67
2018-03-24T21:20:01.155Z,32.30
2018-03-24T21:22:28.609Z,32.47
2018-03-24T21:24:56.137Z,30.07
2018-03-24T21:27:23.677Z,31.27
2018-03-24T21:29:51.189Z,30.57
2018-03-24T21:32:18.670Z,32.50
2018-03-24T21:34:46.121Z,32.10
2018-03-24T21:37:13.562Z,34.40
2018-03-24T21:39:46.111Z,32.20
2018-03-24T21:42:13.611Z,31.03
2018-03-24T21:44:41.107Z,31.10
2018-03-24T21:47:09.540Z,35.87
2018-03-24T21:49:37.109Z,30.63
2018-03-24T21:52:04.593Z,30.03
2018-03-24T21:54:32.206Z,32.70
2018-03-24T21:56:59.684Z,35.07
2018-03-24T21:59:27.187Z,31.60
2018-03-24T22:01:54.773Z,31.97
2018-03-24T22:04:22.352Z,33.80
2018-03-24T22:06:49.834Z,33.20
2018-03-24T22:09:17.316Z,34.77
2018-03-24T22:11:44.809Z,35.33
2018-03-24T22:14:12.749Z,32.73
2018-03-24T22:16:40.259Z,29.83
2018-03-24T22:19:07.705Z,33.90
2018-03-24T22:21:35.222Z,30.10
2018-03-24T22:24:02.701Z,34.63
2018-03-24T22:26:30.197Z,31.63
2018-03-24T22:28:57.717Z,31.07
2018-03-24T22:31:25.215Z,32.93
2018-03-24T22:33:52.713Z,31.77
2018-03-24T22:36:20.322Z,33.87
2018-03-24T22:38:47.834Z,31.47
2018-03-24T22:41:15.338Z,34.47
2018-03-24T22:43:42.812Z,30.97
2018-03-24T22:46:10.328Z,30.47
2018-03-24T22:48:37.800Z,33.40
2018-03-24T22:51:05.304Z,31.47
2018-03-24T22:53:32.778Z,36.83
2018-03-24T22:56:00.283Z,33.30
2018-03-24T22:58:27.766Z,30.80
2018-03-24T23:00:55.303Z,31.83
2018-03-24T23:03:22.781Z,34.70
2018-03-24T23:05:50.342Z,35.80
2018-03-24T23:08:17.815Z,33.27
2018-03-24T23:10:45.305Z,34.43
2018-03-24T23:13:13.758Z,33.17
2018-03-24T23:15:41.366Z,32.73
2018-03-24T23:18:08.889Z,30.83
2018-03-24T23:20:36.338Z,33.50
2018-03-24T23:23:03.949Z,33.83
2018-03-24T23:25:31.432Z,33.37
2018-03-24T23:27:59.049Z,32.40
2018-03-24T23:30:26.500Z,31.47
2018-03-24T23:32:53.979Z,33.77
2018-03-24T23:35:21.538Z,33.90
2018-03-24T23:37:49.026Z,33.63
2018-03-24T23:40:16.493Z,33.00
2018-03-24T23:42:44.030Z,31.73
2018-03-24T23:45:11.510Z,32.23
2018-03-24T23:47:38.978Z,33.60
2018-03-24T23:50:06.497Z,33.40
2018-03-24T23:52:34.054Z,31.57
2018-03-24T23:55:01.538Z,33.77
2018-03-24T23:57:29.075Z,37.23
2018-03-24T23:59:56.556Z,34.47
